sensor_id;sensor_type;location;lat;lon;timestamp;P1;durP1;ratioP1;P2;durP2;ratioP2
70683;SDS011;58263;48.146;11.440;2022-11-03T00:01:43;8.15;;;5.57;;
70683;SDS011;58263;48.146;11.440;2022-11-03T00:04:11;8.70;;;5.05;;
70683;SDS011;58263;48.146;11.440;2022-11-03T00:06:38;11.70;;;4.88;;
70683;SDS011;58263;48.146;11.440;2022-11-03T00:09:05;7.55;;;4.45;;
70683;SDS011;58263;48.146;11.440;2022-11-03T00:11:32;7.45;;;5.00;;
70683;SDS011;58263;48.146;11.440;2022-11-03T00:13:59;8.45;;;5.53;;
70683;SDS011;58263;48.146;11.440;2022-11-03T00:16:24;8.93;;;5.53;;
70683;SDS011;58263;48.146;11.440;2022-11-03T00:18:50;8.80;;;5.75;;
70683;SDS011;58263;48.146;11.440;2022-11-03T00:21:16;8.00;;;5.10;;
70683;SDS011;58263;48.146;11.440;2022-11-03T00:23:42;10.95;;;5.22;;
70683;SDS011;58263;48.146;11.440;2022-11-03T00:26:12;8.43;;;4.75;;
70683;SDS011;58263;48.146;11.440;2022-11-03T00:28:49;11.23;;;4.78;;
70683;SDS011;58263;48.146;11.440;2022-11-03T00:33:54;7.05;;;5.25;;
70683;SDS011;58263;48.146;11.440;2022-11-03T00:36:20;8.02;;;4.80;;
70683;SDS011;58263;48.146;11.440;2022-11-03T00:38:50;7.25;;;4.53;;
70683;SDS011;58263;48.146;11.440;2022-11-03T00:41:16;8.57;;;4.38;;
70683;SDS011;58263;48.146;11.440;2022-11-03T00:43:44;8.63;;;4.78;;
70683;SDS011;58263;48.146;11.440;2022-11-03T00:46:10;9.85;;;4.47;;
70683;SDS011;58263;48.146;11.440;2022-11-03T00:48:35;10.07;;;4.30;;
70683;SDS011;58263;48.146;11.440;2022-11-03T00:53:36;6.65;;;4.43;;
70683;SDS011;58263;48.146;11.440;2022-11-03T00:56:09;6.40;;;4.10;;
70683;SDS011;58263;48.146;11.440;2022-11-03T00:58:38;9.80;;;4.03;;
70683;SDS011;58263;48.146;11.440;2022-11-03T01:01:05;10.55;;;4.38;;
70683;SDS011;58263;48.146;11.440;2022-11-03T01:03:33;7.30;;;4.80;;
70683;SDS011;58263;48.146;11.440;2022-11-03T01:06:00;5.95;;;4.22;;
70683;SDS011;58263;48.146;11.440;2022-11-03T01:08:44;5.88;;;3.88;;
70683;SDS011;58263;48.146;11.440;2022-11-03T01:11:14;7.93;;;3.80;;
70683;SDS011;58263;48.146;11.440;2022-11-03T01:13:59;19.45;;;8.13;;
70683;SDS011;58263;48.146;11.440;2022-11-03T01:16:25;50.78;;;21.95;;
70683;SDS011;58263;48.146;11.440;2022-11-03T01:18:51;35.97;;;16.83;;
70683;SDS011;58263;48.146;11.440;2022-11-03T01:21:17;33.67;;;16.08;;
70683;SDS011;58263;48.146;11.440;2022-11-03T01:23:43;39.40;;;16.08;;
70683;SDS011;58263;48.146;11.440;2022-11-03T01:26:09;40.25;;;16.67;;
70683;SDS011;58263;48.146;11.440;2022-11-03T01:28:36;20.25;;;9.13;;
70683;SDS011;58263;48.146;11.440;2022-11-03T01:31:03;13.75;;;8.05;;
70683;SDS011;58263;48.146;11.440;2022-11-03T01:33:32;14.73;;;7.35;;
70683;SDS011;58263;48.146;11.440;2022-11-03T01:35:58;18.52;;;7.53;;
70683;SDS011;58263;48.146;11.440;2022-11-03T01:38:23;17.43;;;9.77;;
70683;SDS011;58263;48.146;11.440;2022-11-03T01:40:49;11.57;;;6.30;;
70683;SDS011;58263;48.146;11.440;2022-11-03T01:43:18;11.37;;;6.23;;
70683;SDS011;58263;48.146;11.440;2022-11-03T01:45:46;9.73;;;5.75;;
70683;SDS011;58263;48.146;11.440;2022-11-03T01:48:15;9.05;;;5.43;;
70683;SDS011;58263;48.146;11.440;2022-11-03T01:50:42;10.23;;;6.32;;
70683;SDS011;58263;48.146;11.440;2022-11-03T01:53:09;12.45;;;6.03;;
70683;SDS011;58263;48.146;11.440;2022-11-03T01:55:36;8.27;;;5.00;;
70683;SDS011;58263;48.146;11.440;2022-11-03T01:58:09;16.73;;;5.57;;
70683;SDS011;58263;48.146;11.440;2022-11-03T02:00:38;7.93;;;4.70;;
70683;SDS011;58263;48.146;11.440;2022-11-03T02:03:06;8.13;;;4.68;;
70683;SDS011;58263;48.146;11.440;2022-11-03T02:05:32;8.60;;;5.10;;
70683;SDS011;58263;48.146;11.440;2022-11-03T02:07:59;11.73;;;5.40;;
70683;SDS011;58263;48.146;11.440;2022-11-03T02:10:30;8.85;;;4.85;;
70683;SDS011;58263;48.146;11.440;2022-11-03T02:12:55;10.18;;;5.35;;
70683;SDS011;58263;48.146;11.440;2022-11-03T02:15:21;9.93;;;4.93;;
70683;SDS011;58263;48.146;11.440;2022-11-03T02:17:48;10.55;;;4.20;;
70683;SDS011;58263;48.146;11.440;2022-11-03T02:25:38;8.60;;;4.55;;
70683;SDS011;58263;48.146;11.440;2022-11-03T02:28:08;7.63;;;4.88;;
70683;SDS011;58263;48.146;11.440;2022-11-03T02:30:45;7.25;;;4.40;;
70683;SDS011;58263;48.146;11.440;2022-11-03T02:36:05;7.43;;;4.38;;
70683;SDS011;58263;48.146;11.440;2022-11-03T02:38:39;8.10;;;4.40;;
70683;SDS011;58263;48.146;11.440;2022-11-03T02:41:09;8.48;;;4.93;;
70683;SDS011;58263;48.146;11.440;2022-11-03T02:43:37;7.38;;;4.60;;
70683;SDS011;58263;48.146;11.440;2022-11-03T02:46:03;7.05;;;4.97;;
70683;SDS011;58263;48.146;11.440;2022-11-03T02:48:30;8.07;;;5.22;;
70683;SDS011;58263;48.146;11.440;2022-11-03T02:50:56;5.90;;;4.30;;
70683;SDS011;58263;48.146;11.440;2022-11-03T02:53:21;6.90;;;4.53;;
70683;SDS011;58263;48.146;11.440;2022-11-03T03:01:07;5.47;;;3.70;;
70683;SDS011;58263;48.146;11.440;2022-11-03T03:03:43;8.25;;;4.70;;
70683;SDS011;58263;48.146;11.440;2022-11-03T03:06:18;7.35;;;4.03;;
70683;SDS011;58263;48.146;11.440;2022-11-03T03:08:49;9.23;;;4.22;;
70683;SDS011;58263;48.146;11.440;2022-11-03T03:11:19;9.65;;;4.00;;
70683;SDS011;58263;48.146;11.440;2022-11-03T03:14:04;7.78;;;3.75;;
70683;SDS011;58263;48.146;11.440;2022-11-03T03:16:34;7.13;;;3.88;;
70683;SDS011;58263;48.146;11.440;2022-11-03T03:19:20;7.03;;;3.97;;
70683;SDS011;58263;48.146;11.440;2022-11-03T03:21:52;5.53;;;3.90;;
70683;SDS011;58263;48.146;11.440;2022-11-03T03:26:49;6.80;;;3.60;;
70683;SDS011;58263;48.146;11.440;2022-11-03T03:29:17;8.18;;;4.50;;
70683;SDS011;58263;48.146;11.440;2022-11-03T03:31:48;5.90;;;3.83;;
70683;SDS011;58263;48.146;11.440;2022-11-03T03:34:19;7.20;;;4.43;;
70683;SDS011;58263;48.146;11.440;2022-11-03T03:36:47;7.55;;;3.83;;
70683;SDS011;58263;48.146;11.440;2022-11-03T03:39:13;9.15;;;5.15;;
70683;SDS011;58263;48.146;11.440;2022-11-03T03:41:42;6.53;;;3.97;;
70683;SDS011;58263;48.146;11.440;2022-11-03T03:44:10;8.10;;;3.92;;
70683;SDS011;58263;48.146;11.440;2022-11-03T03:46:50;7.90;;;4.13;;
70683;SDS011;58263;48.146;11.440;2022-11-03T03:49:20;6.22;;;3.83;;
70683;SDS011;58263;48.146;11.440;2022-11-03T03:51:45;4.87;;;3.73;;
70683;SDS011;58263;48.146;11.440;2022-11-03T03:54:13;6.35;;;4.25;;
70683;SDS011;58263;48.146;11.440;2022-11-03T03:56:50;7.33;;;4.27;;
70683;SDS011;58263;48.146;11.440;2022-11-03T03:59:22;8.32;;;4.18;;
70683;SDS011;58263;48.146;11.440;2022-11-03T04:01:48;6.43;;;4.47;;
70683;SDS011;58263;48.146;11.440;2022-11-03T04:04:13;7.77;;;4.00;;
70683;SDS011;58263;48.146;11.440;2022-11-03T04:06:38;6.60;;;3.87;;
70683;SDS011;58263;48.146;11.440;2022-11-03T04:09:04;7.90;;;3.80;;
70683;SDS011;58263;48.146;11.440;2022-11-03T04:11:29;5.80;;;3.70;;
70683;SDS011;58263;48.146;11.440;2022-11-03T04:14:13;6.10;;;3.95;;
70683;SDS011;58263;48.146;11.440;2022-11-03T04:16:57;6.50;;;3.50;;
70683;SDS011;58263;48.146;11.440;2022-11-03T04:19:41;6.82;;;4.10;;
70683;SDS011;58263;48.146;11.440;2022-11-03T04:22:27;6.72;;;3.95;;
70683;SDS011;58263;48.146;11.440;2022-11-03T04:24:58;7.05;;;4.32;;
70683;SDS011;58263;48.146;11.440;2022-11-03T04:30:08;5.97;;;3.90;;
70683;SDS011;58263;48.146;11.440;2022-11-03T04:32:39;6.13;;;3.83;;
70683;SDS011;58263;48.146;11.440;2022-11-03T04:35:14;9.50;;;3.63;;
70683;SDS011;58263;48.146;11.440;2022-11-03T04:37:43;7.53;;;4.10;;
70683;SDS011;58263;48.146;11.440;2022-11-03T04:40:13;5.35;;;3.85;;
70683;SDS011;58263;48.146;11.440;2022-11-03T04:42:40;8.88;;;4.40;;
70683;SDS011;58263;48.146;11.440;2022-11-03T04:45:13;5.72;;;3.97;;
70683;SDS011;58263;48.146;11.440;2022-11-03T04:47:46;6.40;;;4.13;;
70683;SDS011;58263;48.146;11.440;2022-11-03T04:50:16;7.27;;;3.47;;
70683;SDS011;58263;48.146;11.440;2022-11-03T04:52:44;7.13;;;4.22;;
70683;SDS011;58263;48.146;11.440;2022-11-03T04:55:12;8.40;;;3.92;;
70683;SDS011;58263;48.146;11.440;2022-11-03T04:57:40;5.47;;;3.72;;
70683;SDS011;58263;48.146;11.440;2022-11-03T05:00:06;5.25;;;3.58;;
70683;SDS011;58263;48.146;11.440;2022-11-03T05:02:31;6.28;;;3.72;;
70683;SDS011;58263;48.146;11.440;2022-11-03T05:04:57;6.72;;;3.70;;
70683;SDS011;58263;48.146;11.440;2022-11-03T05:07:26;7.65;;;4.00;;
70683;SDS011;58263;48.146;11.440;2022-11-03T05:09:57;6.47;;;4.15;;
70683;SDS011;58263;48.146;11.440;2022-11-03T05:12:22;5.03;;;3.50;;
70683;SDS011;58263;48.146;11.440;2022-11-03T05:14:48;7.57;;;4.35;;
70683;SDS011;58263;48.146;11.440;2022-11-03T05:17:16;8.05;;;4.13;;
70683;SDS011;58263;48.146;11.440;2022-11-03T05:19:46;7.65;;;4.35;;
70683;SDS011;58263;48.146;11.440;2022-11-03T05:22:17;6.07;;;3.80;;
70683;SDS011;58263;48.146;11.440;2022-11-03T05:24:46;7.03;;;3.30;;
70683;SDS011;58263;48.146;11.440;2022-11-03T05:27:15;8.25;;;4.07;;
70683;SDS011;58263;48.146;11.440;2022-11-03T05:29:43;8.27;;;4.07;;
70683;SDS011;58263;48.146;11.440;2022-11-03T05:32:10;7.97;;;4.53;;
70683;SDS011;58263;48.146;11.440;2022-11-03T05:34:41;8.57;;;4.18;;
70683;SDS011;58263;48.146;11.440;2022-11-03T05:37:19;7.78;;;3.35;;
70683;SDS011;58263;48.146;11.440;2022-11-03T05:39:57;7.35;;;4.05;;
70683;SDS011;58263;48.146;11.440;2022-11-03T05:44:58;7.20;;;3.30;;
70683;SDS011;58263;48.146;11.440;2022-11-03T05:49:55;6.80;;;3.50;;
70683;SDS011;58263;48.146;11.440;2022-11-03T05:52:26;7.65;;;3.88;;
70683;SDS011;58263;48.146;11.440;2022-11-03T05:54:55;8.55;;;3.47;;
70683;SDS011;58263;48.146;11.440;2022-11-03T05:57:23;10.07;;;4.75;;
70683;SDS011;58263;48.146;11.440;2022-11-03T05:59:52;9.93;;;4.82;;
70683;SDS011;58263;48.146;11.440;2022-11-03T06:05:14;10.18;;;4.68;;
70683;SDS011;58263;48.146;11.440;2022-11-03T06:07:45;12.90;;;4.78;;
70683;SDS011;58263;48.146;11.440;2022-11-03T06:10:23;11.68;;;4.53;;
70683;SDS011;58263;48.146;11.440;2022-11-03T06:12:52;12.15;;;5.90;;
70683;SDS011;58263;48.146;11.440;2022-11-03T06:15:21;17.08;;;6.00;;
70683;SDS011;58263;48.146;11.440;2022-11-03T06:17:52;13.60;;;5.30;;
70683;SDS011;58263;48.146;11.440;2022-11-03T06:20:19;11.65;;;5.63;;
70683;SDS011;58263;48.146;11.440;2022-11-03T06:22:46;12.02;;;5.18;;
70683;SDS011;58263;48.146;11.440;2022-11-03T06:25:31;29.05;;;5.10;;
70683;SDS011;58263;48.146;11.440;2022-11-03T06:28:04;13.23;;;4.93;;
70683;SDS011;58263;48.146;11.440;2022-11-03T06:33:05;23.35;;;6.10;;
70683;SDS011;58263;48.146;11.440;2022-11-03T06:35:38;17.40;;;4.68;;
70683;SDS011;58263;48.146;11.440;2022-11-03T06:38:05;16.13;;;5.07;;
70683;SDS011;58263;48.146;11.440;2022-11-03T06:40:42;14.82;;;6.93;;
70683;SDS011;58263;48.146;11.440;2022-11-03T06:43:23;70.10;;;8.38;;
70683;SDS011;58263;48.146;11.440;2022-11-03T06:45:52;13.80;;;5.43;;
70683;SDS011;58263;48.146;11.440;2022-11-03T06:48:21;8.05;;;4.10;;
70683;SDS011;58263;48.146;11.440;2022-11-03T06:50:50;8.75;;;4.50;;
70683;SDS011;58263;48.146;11.440;2022-11-03T06:53:24;9.07;;;4.57;;
70683;SDS011;58263;48.146;11.440;2022-11-03T06:55:51;9.30;;;5.45;;
70683;SDS011;58263;48.146;11.440;2022-11-03T07:00:59;7.75;;;4.55;;
70683;SDS011;58263;48.146;11.440;2022-11-03T07:03:30;8.65;;;4.15;;
70683;SDS011;58263;48.146;11.440;2022-11-03T07:08:36;11.82;;;4.82;;
70683;SDS011;58263;48.146;11.440;2022-11-03T07:11:10;12.40;;;4.10;;
70683;SDS011;58263;48.146;11.440;2022-11-03T07:13:38;10.05;;;4.22;;
70683;SDS011;58263;48.146;11.440;2022-11-03T07:16:03;6.03;;;4.00;;
70683;SDS011;58263;48.146;11.440;2022-11-03T07:18:38;8.63;;;4.35;;
70683;SDS011;58263;48.146;11.440;2022-11-03T07:23:55;10.38;;;4.13;;
70683;SDS011;58263;48.146;11.440;2022-11-03T07:26:24;16.35;;;4.05;;
70683;SDS011;58263;48.146;11.440;2022-11-03T07:28:50;9.15;;;4.28;;
70683;SDS011;58263;48.146;11.440;2022-11-03T07:31:18;6.05;;;3.67;;
70683;SDS011;58263;48.146;11.440;2022-11-03T07:33:46;10.63;;;3.63;;
70683;SDS011;58263;48.146;11.440;2022-11-03T07:36:14;5.43;;;3.90;;
70683;SDS011;58263;48.146;11.440;2022-11-03T07:38:43;11.65;;;5.20;;
70683;SDS011;58263;48.146;11.440;2022-11-03T07:41:15;4.90;;;3.13;;
70683;SDS011;58263;48.146;11.440;2022-11-03T07:43:45;8.55;;;4.25;;
70683;SDS011;58263;48.146;11.440;2022-11-03T07:46:22;7.43;;;3.75;;
70683;SDS011;58263;48.146;11.440;2022-11-03T07:48:50;9.73;;;4.65;;
70683;SDS011;58263;48.146;11.440;2022-11-03T07:51:19;7.35;;;4.97;;
70683;SDS011;58263;48.146;11.440;2022-11-03T07:54:09;6.28;;;4.13;;
70683;SDS011;58263;48.146;11.440;2022-11-03T07:56:58;5.43;;;3.70;;
70683;SDS011;58263;48.146;11.440;2022-11-03T07:59:32;5.93;;;3.45;;
70683;SDS011;58263;48.146;11.440;2022-11-03T08:01:57;7.15;;;3.35;;
70683;SDS011;58263;48.146;11.440;2022-11-03T08:04:25;5.63;;;3.58;;
70683;SDS011;58263;48.146;11.440;2022-11-03T08:06:53;5.47;;;3.42;;
70683;SDS011;58263;48.146;11.440;2022-11-03T08:09:18;5.85;;;3.55;;
70683;SDS011;58263;48.146;11.440;2022-11-03T08:11:45;6.03;;;4.00;;
70683;SDS011;58263;48.146;11.440;2022-11-03T08:14:11;9.60;;;4.40;;
70683;SDS011;58263;48.146;11.440;2022-11-03T08:16:37;9.07;;;6.15;;
70683;SDS011;58263;48.146;11.440;2022-11-03T08:19:02;11.02;;;6.60;;
70683;SDS011;58263;48.146;11.440;2022-11-03T08:21:28;10.35;;;5.38;;
70683;SDS011;58263;48.146;11.440;2022-11-03T08:23:53;6.40;;;4.47;;
70683;SDS011;58263;48.146;11.440;2022-11-03T08:26:19;12.05;;;6.35;;
70683;SDS011;58263;48.146;11.440;2022-11-03T08:28:44;8.77;;;5.25;;
70683;SDS011;58263;48.146;11.440;2022-11-03T08:31:10;6.85;;;4.70;;
70683;SDS011;58263;48.146;11.440;2022-11-03T08:33:35;8.32;;;4.15;;
70683;SDS011;58263;48.146;11.440;2022-11-03T08:36:01;5.63;;;3.70;;
70683;SDS011;58263;48.146;11.440;2022-11-03T08:38:27;8.02;;;3.90;;
70683;SDS011;58263;48.146;11.440;2022-11-03T08:40:53;6.00;;;3.93;;
70683;SDS011;58263;48.146;11.440;2022-11-03T08:43:19;7.50;;;4.78;;
70683;SDS011;58263;48.146;11.440;2022-11-03T08:45:45;6.68;;;4.55;;
70683;SDS011;58263;48.146;11.440;2022-11-03T08:48:11;5.47;;;4.00;;
70683;SDS011;58263;48.146;11.440;2022-11-03T08:50:36;6.75;;;4.38;;
70683;SDS011;58263;48.146;11.440;2022-11-03T08:53:02;10.23;;;4.28;;
70683;SDS011;58263;48.146;11.440;2022-11-03T08:55:27;8.23;;;4.47;;
70683;SDS011;58263;48.146;11.440;2022-11-03T08:57:52;5.40;;;3.67;;
70683;SDS011;58263;48.146;11.440;2022-11-03T09:00:18;6.90;;;4.40;;
70683;SDS011;58263;48.146;11.440;2022-11-03T09:02:43;5.53;;;4.00;;
70683;SDS011;58263;48.146;11.440;2022-11-03T09:05:10;7.38;;;3.70;;
70683;SDS011;58263;48.146;11.440;2022-11-03T09:07:36;7.18;;;4.35;;
70683;SDS011;58263;48.146;11.440;2022-11-03T09:10:03;8.57;;;4.82;;
70683;SDS011;58263;48.146;11.440;2022-11-03T09:12:30;6.32;;;4.13;;
70683;SDS011;58263;48.146;11.440;2022-11-03T09:14:55;4.90;;;3.63;;
70683;SDS011;58263;48.146;11.440;2022-11-03T09:17:21;9.03;;;4.07;;
70683;SDS011;58263;48.146;11.440;2022-11-03T09:19:46;6.97;;;4.03;;
70683;SDS011;58263;48.146;11.440;2022-11-03T09:22:11;7.70;;;4.20;;
70683;SDS011;58263;48.146;11.440;2022-11-03T09:24:36;5.57;;;3.87;;
70683;SDS011;58263;48.146;11.440;2022-11-03T09:27:02;7.00;;;4.20;;
70683;SDS011;58263;48.146;11.440;2022-11-03T09:29:28;6.70;;;4.10;;
70683;SDS011;58263;48.146;11.440;2022-11-03T09:31:54;5.72;;;3.85;;
70683;SDS011;58263;48.146;11.440;2022-11-03T09:34:19;9.00;;;3.93;;
70683;SDS011;58263;48.146;11.440;2022-11-03T09:36:44;6.07;;;4.00;;
70683;SDS011;58263;48.146;11.440;2022-11-03T09:39:09;6.03;;;4.23;;
70683;SDS011;58263;48.146;11.440;2022-11-03T09:41:35;5.90;;;4.50;;
70683;SDS011;58263;48.146;11.440;2022-11-03T09:44:00;6.65;;;3.60;;
70683;SDS011;58263;48.146;11.440;2022-11-03T09:46:27;4.72;;;3.90;;
70683;SDS011;58263;48.146;11.440;2022-11-03T09:48:53;7.25;;;3.72;;
70683;SDS011;58263;48.146;11.440;2022-11-03T09:51:22;10.07;;;3.50;;
70683;SDS011;58263;48.146;11.440;2022-11-03T09:53:48;5.47;;;3.80;;
70683;SDS011;58263;48.146;11.440;2022-11-03T09:56:17;6.38;;;4.25;;
70683;SDS011;58263;48.146;11.440;2022-11-03T09:58:45;4.55;;;3.13;;
70683;SDS011;58263;48.146;11.440;2022-11-03T10:01:11;12.23;;;3.90;;
70683;SDS011;58263;48.146;11.440;2022-11-03T10:03:36;8.88;;;4.50;;
70683;SDS011;58263;48.146;11.440;2022-11-03T10:06:03;6.45;;;4.00;;
70683;SDS011;58263;48.146;11.440;2022-11-03T10:08:29;8.77;;;4.13;;
70683;SDS011;58263;48.146;11.440;2022-11-03T10:10:56;6.63;;;4.53;;
70683;SDS011;58263;48.146;11.440;2022-11-03T10:16:17;8.63;;;3.70;;
70683;SDS011;58263;48.146;11.440;2022-11-03T10:18:46;7.15;;;3.70;;
70683;SDS011;58263;48.146;11.440;2022-11-03T10:23:44;8.40;;;4.55;;
70683;SDS011;58263;48.146;11.440;2022-11-03T10:26:10;5.00;;;3.72;;
70683;SDS011;58263;48.146;11.440;2022-11-03T10:29:02;6.28;;;4.25;;
70683;SDS011;58263;48.146;11.440;2022-11-03T10:31:37;7.88;;;4.68;;
70683;SDS011;58263;48.146;11.440;2022-11-03T10:34:04;8.63;;;5.20;;
70683;SDS011;58263;48.146;11.440;2022-11-03T10:36:48;11.70;;;5.13;;
70683;SDS011;58263;48.146;11.440;2022-11-03T10:39:24;8.73;;;5.43;;
70683;SDS011;58263;48.146;11.440;2022-11-03T10:44:22;8.55;;;4.90;;
70683;SDS011;58263;48.146;11.440;2022-11-03T10:47:03;5.72;;;3.95;;
70683;SDS011;58263;48.146;11.440;2022-11-03T10:49:31;10.20;;;4.95;;
70683;SDS011;58263;48.146;11.440;2022-11-03T10:52:17;7.88;;;4.55;;
70683;SDS011;58263;48.146;11.440;2022-11-03T10:54:44;9.30;;;5.00;;
70683;SDS011;58263;48.146;11.440;2022-11-03T10:57:10;8.43;;;4.82;;
70683;SDS011;58263;48.146;11.440;2022-11-03T10:59:36;11.18;;;4.57;;
70683;SDS011;58263;48.146;11.440;2022-11-03T11:02:02;11.68;;;5.00;;
70683;SDS011;58263;48.146;11.440;2022-11-03T11:04:34;9.73;;;5.43;;
70683;SDS011;58263;48.146;11.440;2022-11-03T11:06:59;10.23;;;5.40;;
70683;SDS011;58263;48.146;11.440;2022-11-03T11:09:25;7.50;;;4.65;;
70683;SDS011;58263;48.146;11.440;2022-11-03T11:12:34;7.15;;;5.28;;
70683;SDS011;58263;48.146;11.440;2022-11-03T11:26:12;10.38;;;4.53;;
70683;SDS011;58263;48.146;11.440;2022-11-03T11:28:39;7.55;;;4.53;;
70683;SDS011;58263;48.146;11.440;2022-11-03T11:34:10;8.15;;;4.82;;
70683;SDS011;58263;48.146;11.440;2022-11-03T11:44:39;8.95;;;5.32;;
70683;SDS011;58263;48.146;11.440;2022-11-03T11:47:19;9.63;;;6.25;;
70683;SDS011;58263;48.146;11.440;2022-11-03T11:55:20;11.23;;;7.25;;
70683;SDS011;58263;48.146;11.440;2022-11-03T11:57:49;11.13;;;7.28;;
70683;SDS011;58263;48.146;11.440;2022-11-03T12:00:20;12.02;;;7.35;;
70683;SDS011;58263;48.146;11.440;2022-11-03T12:02:47;9.70;;;7.35;;
70683;SDS011;58263;48.146;11.440;2022-11-03T12:05:21;12.88;;;7.00;;
70683;SDS011;58263;48.146;11.440;2022-11-03T12:07:52;8.63;;;7.00;;
70683;SDS011;58263;48.146;11.440;2022-11-03T12:10:19;9.75;;;7.05;;
70683;SDS011;58263;48.146;11.440;2022-11-03T12:12:50;12.82;;;6.70;;
70683;SDS011;58263;48.146;11.440;2022-11-03T12:20:54;13.77;;;6.18;;
70683;SDS011;58263;48.146;11.440;2022-11-03T12:26:03;10.10;;;6.13;;
70683;SDS011;58263;48.146;11.440;2022-11-03T12:28:35;9.80;;;5.75;;
70683;SDS011;58263;48.146;11.440;2022-11-03T12:31:02;9.77;;;6.50;;
70683;SDS011;58263;48.146;11.440;2022-11-03T12:33:28;10.60;;;6.13;;
70683;SDS011;58263;48.146;11.440;2022-11-03T12:35:54;9.80;;;5.95;;
70683;SDS011;58263;48.146;11.440;2022-11-03T12:38:20;9.48;;;5.78;;
70683;SDS011;58263;48.146;11.440;2022-11-03T12:40:46;11.43;;;5.93;;
70683;SDS011;58263;48.146;11.440;2022-11-03T12:43:11;13.10;;;6.10;;
70683;SDS011;58263;48.146;11.440;2022-11-03T12:45:36;13.33;;;6.73;;
70683;SDS011;58263;48.146;11.440;2022-11-03T12:48:02;12.87;;;7.07;;
70683;SDS011;58263;48.146;11.440;2022-11-03T12:50:28;10.48;;;6.18;;
70683;SDS011;58263;48.146;11.440;2022-11-03T12:52:53;8.23;;;6.05;;
70683;SDS011;58263;48.146;11.440;2022-11-03T12:55:19;9.10;;;6.20;;
70683;SDS011;58263;48.146;11.440;2022-11-03T12:57:44;9.50;;;5.50;;
70683;SDS011;58263;48.146;11.440;2022-11-03T13:00:10;12.15;;;6.53;;
70683;SDS011;58263;48.146;11.440;2022-11-03T13:02:36;13.07;;;6.85;;
70683;SDS011;58263;48.146;11.440;2022-11-03T13:05:02;8.18;;;5.90;;
70683;SDS011;58263;48.146;11.440;2022-11-03T13:07:28;12.10;;;6.57;;
70683;SDS011;58263;48.146;11.440;2022-11-03T13:09:53;8.40;;;6.17;;
70683;SDS011;58263;48.146;11.440;2022-11-03T13:12:18;11.83;;;6.70;;
70683;SDS011;58263;48.146;11.440;2022-11-03T13:14:59;9.38;;;6.45;;
70683;SDS011;58263;48.146;11.440;2022-11-03T13:17:26;10.27;;;5.70;;
70683;SDS011;58263;48.146;11.440;2022-11-03T13:19:52;9.70;;;5.40;;
70683;SDS011;58263;48.146;11.440;2022-11-03T13:22:17;11.50;;;5.22;;
70683;SDS011;58263;48.146;11.440;2022-11-03T13:24:44;8.38;;;5.22;;
70683;SDS011;58263;48.146;11.440;2022-11-03T13:27:10;10.20;;;5.80;;
70683;SDS011;58263;48.146;11.440;2022-11-03T13:29:35;8.35;;;4.88;;
70683;SDS011;58263;48.146;11.440;2022-11-03T13:32:01;13.37;;;5.47;;
70683;SDS011;58263;48.146;11.440;2022-11-03T13:34:27;8.93;;;5.45;;
70683;SDS011;58263;48.146;11.440;2022-11-03T13:36:53;9.10;;;5.80;;
70683;SDS011;58263;48.146;11.440;2022-11-03T13:39:19;11.85;;;5.43;;
70683;SDS011;58263;48.146;11.440;2022-11-03T13:41:45;8.45;;;5.18;;
70683;SDS011;58263;48.146;11.440;2022-11-03T13:44:10;10.17;;;4.97;;
70683;SDS011;58263;48.146;11.440;2022-11-03T13:46:35;11.27;;;6.03;;
70683;SDS011;58263;48.146;11.440;2022-11-03T13:49:01;8.30;;;5.45;;
70683;SDS011;58263;48.146;11.440;2022-11-03T13:51:26;9.27;;;5.83;;
70683;SDS011;58263;48.146;11.440;2022-11-03T13:53:51;9.43;;;5.27;;
70683;SDS011;58263;48.146;11.440;2022-11-03T13:56:17;10.02;;;5.55;;
70683;SDS011;58263;48.146;11.440;2022-11-03T13:58:42;7.60;;;5.83;;
70683;SDS011;58263;48.146;11.440;2022-11-03T14:01:07;12.00;;;5.77;;
70683;SDS011;58263;48.146;11.440;2022-11-03T14:03:33;7.30;;;5.47;;
70683;SDS011;58263;48.146;11.440;2022-11-03T14:05:58;10.65;;;6.28;;
70683;SDS011;58263;48.146;11.440;2022-11-03T14:08:23;8.77;;;5.80;;
70683;SDS011;58263;48.146;11.440;2022-11-03T14:10:49;8.57;;;5.93;;
70683;SDS011;58263;48.146;11.440;2022-11-03T14:13:14;11.00;;;5.47;;
70683;SDS011;58263;48.146;11.440;2022-11-03T14:15:39;9.50;;;6.35;;
70683;SDS011;58263;48.146;11.440;2022-11-03T14:18:05;10.10;;;5.77;;
70683;SDS011;58263;48.146;11.440;2022-11-03T14:20:30;9.05;;;5.95;;
70683;SDS011;58263;48.146;11.440;2022-11-03T14:22:56;15.80;;;6.00;;
70683;SDS011;58263;48.146;11.440;2022-11-03T14:25:21;8.80;;;5.40;;
70683;SDS011;58263;48.146;11.440;2022-11-03T14:27:47;10.95;;;6.00;;
70683;SDS011;58263;48.146;11.440;2022-11-03T14:30:12;6.63;;;4.97;;
70683;SDS011;58263;48.146;11.440;2022-11-03T14:32:37;8.52;;;5.70;;
70683;SDS011;58263;48.146;11.440;2022-11-03T14:35:03;10.48;;;5.70;;
70683;SDS011;58263;48.146;11.440;2022-11-03T14:37:29;10.25;;;5.93;;
70683;SDS011;58263;48.146;11.440;2022-11-03T14:39:54;11.57;;;6.30;;
70683;SDS011;58263;48.146;11.440;2022-11-03T14:42:20;9.05;;;5.18;;
70683;SDS011;58263;48.146;11.440;2022-11-03T14:44:45;8.98;;;6.40;;
70683;SDS011;58263;48.146;11.440;2022-11-03T14:47:15;10.50;;;5.70;;
70683;SDS011;58263;48.146;11.440;2022-11-03T14:49:42;10.13;;;5.40;;
70683;SDS011;58263;48.146;11.440;2022-11-03T14:52:07;14.25;;;6.03;;
70683;SDS011;58263;48.146;11.440;2022-11-03T14:54:33;9.90;;;5.85;;
70683;SDS011;58263;48.146;11.440;2022-11-03T14:57:00;11.00;;;5.65;;
70683;SDS011;58263;48.146;11.440;2022-11-03T14:59:26;9.68;;;5.78;;
70683;SDS011;58263;48.146;11.440;2022-11-03T15:01:52;9.27;;;5.47;;
70683;SDS011;58263;48.146;11.440;2022-11-03T15:04:18;13.68;;;5.72;;
70683;SDS011;58263;48.146;11.440;2022-11-03T15:06:44;8.02;;;5.38;;
70683;SDS011;58263;48.146;11.440;2022-11-03T15:09:10;8.70;;;5.07;;
70683;SDS011;58263;48.146;11.440;2022-11-03T15:11:38;11.13;;;6.10;;
70683;SDS011;58263;48.146;11.440;2022-11-03T15:14:03;11.13;;;5.90;;
70683;SDS011;58263;48.146;11.440;2022-11-03T15:16:28;8.27;;;5.78;;
70683;SDS011;58263;48.146;11.440;2022-11-03T15:18:54;8.30;;;5.57;;
70683;SDS011;58263;48.146;11.440;2022-11-03T15:21:19;8.35;;;5.82;;
70683;SDS011;58263;48.146;11.440;2022-11-03T15:23:45;9.73;;;5.82;;
70683;SDS011;58263;48.146;11.440;2022-11-03T15:26:10;7.07;;;5.80;;
70683;SDS011;58263;48.146;11.440;2022-11-03T15:28:38;8.68;;;5.50;;
70683;SDS011;58263;48.146;11.440;2022-11-03T15:31:04;9.25;;;6.05;;
70683;SDS011;58263;48.146;11.440;2022-11-03T15:33:29;12.68;;;5.22;;
70683;SDS011;58263;48.146;11.440;2022-11-03T15:35:55;10.67;;;6.10;;
70683;SDS011;58263;48.146;11.440;2022-11-03T15:38:20;9.38;;;5.60;;
70683;SDS011;58263;48.146;11.440;2022-11-03T15:40:45;8.83;;;5.27;;
70683;SDS011;58263;48.146;11.440;2022-11-03T15:43:11;10.07;;;5.37;;
70683;SDS011;58263;48.146;11.440;2022-11-03T15:45:36;10.23;;;5.65;;
70683;SDS011;58263;48.146;11.440;2022-11-03T15:48:01;9.27;;;6.05;;
70683;SDS011;58263;48.146;11.440;2022-11-03T15:50:27;10.45;;;5.97;;
70683;SDS011;58263;48.146;11.440;2022-11-03T15:52:53;11.37;;;6.50;;
70683;SDS011;58263;48.146;11.440;2022-11-03T15:55:19;11.57;;;5.72;;
70683;SDS011;58263;48.146;11.440;2022-11-03T15:57:45;11.30;;;5.80;;
70683;SDS011;58263;48.146;11.440;2022-11-03T16:00:11;11.63;;;6.40;;
70683;SDS011;58263;48.146;11.440;2022-11-03T16:02:38;9.48;;;6.60;;
70683;SDS011;58263;48.146;11.440;2022-11-03T16:05:03;9.48;;;5.65;;